Mit webcam er opstillet i Qinngorput og har retning mod den sydlige del af Nuuk. Billedet opdateres automatisk fra min Raspberry Pi.

 

 

BGGH 221650Z 33007KT 9999 FEW015 BKN200 02/M04 Q0993